Alts de Monte Brisas, Puerto Rico
Current Conditions -  °F | °C
As of 10:53 AM on Saturday 25 Oct 2014 (Local Time) from TJNR Reporting Station
Broken Clouds Broken Clouds  
Wind Chill: 90°   Ceiling: 5000
Heat Index: 101°   Visibility: 10mi
Dew Point: 76°   Wind: 14mph
Humidity: 63%   Direction: 150°SSE
Pressure: 29.97"   Gusts: 18mph
Location:  18.3304°N, 65.6573°W
Report Text: TJNR 251453Z AUTO 15012G16KT 10SM SCT026 SCT032 BKN050 32/24 A2997 RMK AO2 SLP148 T03220244 50003 $
Loading
Personal Weather Stations






























Interactive Weather Map
Tropical Storm Tracking
New forecast layout! Learn more

10-Day Weather Forecast

Advertisements
Track Severe Weather on mobile